sensor_id;sensor_type;location;lat;lon;timestamp;P1;durP1;ratioP1;P2;durP2;ratioP2
1725;SDS011;41776;48.260;8.928;2024-01-11T00:02:27;29.60;;;12.57;;
1725;SDS011;41776;48.260;8.928;2024-01-11T00:04:55;36.97;;;13.83;;
1725;SDS011;41776;48.260;8.928;2024-01-11T00:07:22;31.93;;;11.60;;
1725;SDS011;41776;48.260;8.928;2024-01-11T00:09:48;32.23;;;11.93;;
1725;SDS011;41776;48.260;8.928;2024-01-11T00:12:15;31.90;;;12.70;;
1725;SDS011;41776;48.260;8.928;2024-01-11T00:14:41;39.83;;;12.87;;
1725;SDS011;41776;48.260;8.928;2024-01-11T00:17:08;30.23;;;10.93;;
1725;SDS011;41776;48.260;8.928;2024-01-11T00:19:34;35.07;;;11.67;;
1725;SDS011;41776;48.260;8.928;2024-01-11T00:22:06;34.20;;;13.00;;
1725;SDS011;41776;48.260;8.928;2024-01-11T00:24:33;30.90;;;12.17;;
1725;SDS011;41776;48.260;8.928;2024-01-11T00:26:59;32.93;;;11.20;;
1725;SDS011;41776;48.260;8.928;2024-01-11T00:29:26;33.17;;;13.27;;
1725;SDS011;41776;48.260;8.928;2024-01-11T00:31:55;37.73;;;12.97;;
1725;SDS011;41776;48.260;8.928;2024-01-11T00:34:26;38.23;;;13.27;;
1725;SDS011;41776;48.260;8.928;2024-01-11T00:36:52;40.43;;;14.57;;
1725;SDS011;41776;48.260;8.928;2024-01-11T00:39:20;34.53;;;12.33;;
1725;SDS011;41776;48.260;8.928;2024-01-11T00:41:49;38.37;;;14.77;;
1725;SDS011;41776;48.260;8.928;2024-01-11T00:44:16;32.50;;;13.03;;
1725;SDS011;41776;48.260;8.928;2024-01-11T00:46:42;38.17;;;14.17;;
1725;SDS011;41776;48.260;8.928;2024-01-11T00:49:09;32.97;;;12.90;;
1725;SDS011;41776;48.260;8.928;2024-01-11T00:51:35;34.97;;;12.67;;
1725;SDS011;41776;48.260;8.928;2024-01-11T00:54:05;39.97;;;13.37;;
1725;SDS011;41776;48.260;8.928;2024-01-11T00:56:33;34.83;;;14.27;;
1725;SDS011;41776;48.260;8.928;2024-01-11T00:58:59;37.57;;;13.07;;
1725;SDS011;41776;48.260;8.928;2024-01-11T01:01:26;37.03;;;12.73;;
1725;SDS011;41776;48.260;8.928;2024-01-11T01:03:53;39.63;;;14.63;;
1725;SDS011;41776;48.260;8.928;2024-01-11T01:06:22;35.17;;;13.17;;
1725;SDS011;41776;48.260;8.928;2024-01-11T01:08:49;36.23;;;13.53;;
1725;SDS011;41776;48.260;8.928;2024-01-11T01:11:15;38.93;;;13.83;;
1725;SDS011;41776;48.260;8.928;2024-01-11T01:13:46;33.77;;;13.30;;
1725;SDS011;41776;48.260;8.928;2024-01-11T01:16:15;39.47;;;14.20;;
1725;SDS011;41776;48.260;8.928;2024-01-11T01:18:44;32.17;;;12.40;;
1725;SDS011;41776;48.260;8.928;2024-01-11T01:21:11;32.77;;;12.23;;
1725;SDS011;41776;48.260;8.928;2024-01-11T01:23:37;32.27;;;12.07;;
1725;SDS011;41776;48.260;8.928;2024-01-11T01:26:04;28.37;;;10.33;;
1725;SDS011;41776;48.260;8.928;2024-01-11T01:28:32;29.33;;;11.47;;
1725;SDS011;41776;48.260;8.928;2024-01-11T01:31:00;34.17;;;12.10;;
1725;SDS011;41776;48.260;8.928;2024-01-11T01:33:27;25.30;;;10.10;;
1725;SDS011;41776;48.260;8.928;2024-01-11T01:35:53;33.57;;;11.97;;
1725;SDS011;41776;48.260;8.928;2024-01-11T01:38:20;35.87;;;12.33;;
1725;SDS011;41776;48.260;8.928;2024-01-11T01:40:46;28.03;;;11.63;;
1725;SDS011;41776;48.260;8.928;2024-01-11T01:43:13;32.27;;;11.97;;
1725;SDS011;41776;48.260;8.928;2024-01-11T01:45:39;34.03;;;11.77;;
1725;SDS011;41776;48.260;8.928;2024-01-11T01:48:07;27.53;;;11.53;;
1725;SDS011;41776;48.260;8.928;2024-01-11T01:50:34;27.10;;;10.83;;
1725;SDS011;41776;48.260;8.928;2024-01-11T01:53:03;26.60;;;10.07;;
1725;SDS011;41776;48.260;8.928;2024-01-11T01:55:29;30.93;;;10.73;;
1725;SDS011;41776;48.260;8.928;2024-01-11T01:57:57;28.03;;;9.70;;
1725;SDS011;41776;48.260;8.928;2024-01-11T02:00:25;28.00;;;10.70;;
1725;SDS011;41776;48.260;8.928;2024-01-11T02:02:52;25.10;;;9.00;;
1725;SDS011;41776;48.260;8.928;2024-01-11T02:05:24;22.63;;;9.23;;
1725;SDS011;41776;48.260;8.928;2024-01-11T02:07:51;20.93;;;8.23;;
1725;SDS011;41776;48.260;8.928;2024-01-11T02:10:18;22.40;;;8.17;;
1725;SDS011;41776;48.260;8.928;2024-01-11T02:12:48;25.07;;;7.90;;
1725;SDS011;41776;48.260;8.928;2024-01-11T02:15:15;20.67;;;8.47;;
1725;SDS011;41776;48.260;8.928;2024-01-11T02:17:41;20.60;;;7.67;;
1725;SDS011;41776;48.260;8.928;2024-01-11T02:20:09;19.87;;;8.43;;
1725;SDS011;41776;48.260;8.928;2024-01-11T02:22:38;28.07;;;9.27;;
1725;SDS011;41776;48.260;8.928;2024-01-11T02:25:08;24.13;;;8.60;;
1725;SDS011;41776;48.260;8.928;2024-01-11T02:27:44;16.67;;;7.53;;
1725;SDS011;41776;48.260;8.928;2024-01-11T02:30:11;19.33;;;7.77;;
1725;SDS011;41776;48.260;8.928;2024-01-11T02:32:41;18.67;;;8.20;;
1725;SDS011;41776;48.260;8.928;2024-01-11T02:35:11;21.80;;;7.93;;
1725;SDS011;41776;48.260;8.928;2024-01-11T02:37:38;18.93;;;7.30;;
1725;SDS011;41776;48.260;8.928;2024-01-11T02:40:06;20.30;;;6.90;;
1725;SDS011;41776;48.260;8.928;2024-01-11T02:42:35;18.37;;;7.40;;
1725;SDS011;41776;48.260;8.928;2024-01-11T02:45:02;24.27;;;7.87;;
1725;SDS011;41776;48.260;8.928;2024-01-11T02:47:30;19.60;;;7.20;;
1725;SDS011;41776;48.260;8.928;2024-01-11T02:49:56;18.97;;;7.77;;
1725;SDS011;41776;48.260;8.928;2024-01-11T02:52:23;26.40;;;10.10;;
1725;SDS011;41776;48.260;8.928;2024-01-11T02:54:50;20.33;;;8.00;;
1725;SDS011;41776;48.260;8.928;2024-01-11T02:57:20;19.47;;;7.80;;
1725;SDS011;41776;48.260;8.928;2024-01-11T02:59:47;18.70;;;7.50;;
1725;SDS011;41776;48.260;8.928;2024-01-11T03:02:17;19.43;;;6.83;;
1725;SDS011;41776;48.260;8.928;2024-01-11T03:04:43;22.07;;;6.83;;
1725;SDS011;41776;48.260;8.928;2024-01-11T03:07:10;26.73;;;8.50;;
1725;SDS011;41776;48.260;8.928;2024-01-11T03:09:36;27.67;;;8.90;;
1725;SDS011;41776;48.260;8.928;2024-01-11T03:12:03;18.00;;;8.27;;
1725;SDS011;41776;48.260;8.928;2024-01-11T03:14:32;16.20;;;6.93;;
1725;SDS011;41776;48.260;8.928;2024-01-11T03:17:02;18.10;;;6.87;;
1725;SDS011;41776;48.260;8.928;2024-01-11T03:19:29;16.97;;;7.17;;
1725;SDS011;41776;48.260;8.928;2024-01-11T03:21:56;30.30;;;11.07;;
1725;SDS011;41776;48.260;8.928;2024-01-11T03:24:22;22.97;;;8.17;;
1725;SDS011;41776;48.260;8.928;2024-01-11T03:26:49;26.07;;;9.53;;
1725;SDS011;41776;48.260;8.928;2024-01-11T03:29:16;20.63;;;8.00;;
1725;SDS011;41776;48.260;8.928;2024-01-11T03:31:44;20.17;;;7.60;;
1725;SDS011;41776;48.260;8.928;2024-01-11T03:34:10;15.30;;;6.60;;
1725;SDS011;41776;48.260;8.928;2024-01-11T03:36:37;12.90;;;5.87;;
1725;SDS011;41776;48.260;8.928;2024-01-11T03:39:03;16.70;;;6.57;;
1725;SDS011;41776;48.260;8.928;2024-01-11T03:41:30;17.00;;;7.90;;
1725;SDS011;41776;48.260;8.928;2024-01-11T03:43:56;22.60;;;7.80;;
1725;SDS011;41776;48.260;8.928;2024-01-11T03:46:23;23.43;;;8.93;;
1725;SDS011;41776;48.260;8.928;2024-01-11T03:48:51;20.20;;;8.40;;
1725;SDS011;41776;48.260;8.928;2024-01-11T03:51:17;20.30;;;7.47;;
1725;SDS011;41776;48.260;8.928;2024-01-11T03:53:44;18.00;;;6.87;;
1725;SDS011;41776;48.260;8.928;2024-01-11T03:56:11;23.37;;;8.17;;
1725;SDS011;41776;48.260;8.928;2024-01-11T03:58:37;17.10;;;6.90;;
1725;SDS011;41776;48.260;8.928;2024-01-11T04:01:06;28.73;;;10.23;;
1725;SDS011;41776;48.260;8.928;2024-01-11T04:03:35;20.93;;;8.67;;
1725;SDS011;41776;48.260;8.928;2024-01-11T04:06:03;21.97;;;7.17;;
1725;SDS011;41776;48.260;8.928;2024-01-11T04:08:30;19.60;;;8.37;;
1725;SDS011;41776;48.260;8.928;2024-01-11T04:10:56;20.23;;;6.73;;
1725;SDS011;41776;48.260;8.928;2024-01-11T04:13:23;16.90;;;6.13;;
1725;SDS011;41776;48.260;8.928;2024-01-11T04:15:50;13.87;;;5.83;;
1725;SDS011;41776;48.260;8.928;2024-01-11T04:18:16;15.97;;;6.43;;
1725;SDS011;41776;48.260;8.928;2024-01-11T04:20:43;18.33;;;5.40;;
1725;SDS011;41776;48.260;8.928;2024-01-11T04:23:11;10.33;;;5.47;;
1725;SDS011;41776;48.260;8.928;2024-01-11T04:25:37;16.30;;;6.30;;
1725;SDS011;41776;48.260;8.928;2024-01-11T04:28:04;17.33;;;6.87;;
1725;SDS011;41776;48.260;8.928;2024-01-11T04:30:31;17.77;;;7.00;;
1725;SDS011;41776;48.260;8.928;2024-01-11T04:32:57;18.40;;;6.80;;
1725;SDS011;41776;48.260;8.928;2024-01-11T04:35:24;18.77;;;7.07;;
1725;SDS011;41776;48.260;8.928;2024-01-11T04:37:50;21.93;;;8.47;;
1725;SDS011;41776;48.260;8.928;2024-01-11T04:40:18;16.90;;;7.47;;
1725;SDS011;41776;48.260;8.928;2024-01-11T04:42:45;19.20;;;7.50;;
1725;SDS011;41776;48.260;8.928;2024-01-11T04:45:11;20.93;;;7.17;;
1725;SDS011;41776;48.260;8.928;2024-01-11T04:47:38;17.93;;;7.13;;
1725;SDS011;41776;48.260;8.928;2024-01-11T04:50:06;17.43;;;6.50;;
1725;SDS011;41776;48.260;8.928;2024-01-11T04:52:33;23.43;;;7.73;;
1725;SDS011;41776;48.260;8.928;2024-01-11T04:55:00;15.50;;;6.60;;
1725;SDS011;41776;48.260;8.928;2024-01-11T04:57:28;16.90;;;6.77;;
1725;SDS011;41776;48.260;8.928;2024-01-11T04:59:55;19.73;;;7.87;;
1725;SDS011;41776;48.260;8.928;2024-01-11T05:02:21;24.87;;;8.27;;
1725;SDS011;41776;48.260;8.928;2024-01-11T05:04:48;26.73;;;9.70;;
1725;SDS011;41776;48.260;8.928;2024-01-11T05:07:14;28.27;;;11.50;;
1725;SDS011;41776;48.260;8.928;2024-01-11T05:09:41;30.90;;;11.67;;
1725;SDS011;41776;48.260;8.928;2024-01-11T05:12:07;34.67;;;11.67;;
1725;SDS011;41776;48.260;8.928;2024-01-11T05:14:35;23.37;;;9.33;;
1725;SDS011;41776;48.260;8.928;2024-01-11T05:17:02;23.80;;;10.23;;
1725;SDS011;41776;48.260;8.928;2024-01-11T05:19:29;23.73;;;9.53;;
1725;SDS011;41776;48.260;8.928;2024-01-11T05:21:55;28.37;;;9.80;;
1725;SDS011;41776;48.260;8.928;2024-01-11T05:24:22;22.93;;;8.47;;
1725;SDS011;41776;48.260;8.928;2024-01-11T05:26:48;21.07;;;8.20;;
1725;SDS011;41776;48.260;8.928;2024-01-11T05:29:15;23.60;;;8.00;;
1725;SDS011;41776;48.260;8.928;2024-01-11T05:31:43;25.33;;;8.70;;
1725;SDS011;41776;48.260;8.928;2024-01-11T05:34:10;19.00;;;8.93;;
1725;SDS011;41776;48.260;8.928;2024-01-11T05:36:37;28.13;;;11.17;;
1725;SDS011;41776;48.260;8.928;2024-01-11T05:39:03;30.47;;;11.83;;
1725;SDS011;41776;48.260;8.928;2024-01-11T05:41:31;35.03;;;11.57;;
1725;SDS011;41776;48.260;8.928;2024-01-11T05:43:57;38.40;;;12.00;;
1725;SDS011;41776;48.260;8.928;2024-01-11T05:46:24;30.20;;;11.17;;
1725;SDS011;41776;48.260;8.928;2024-01-11T05:48:52;27.57;;;10.60;;
1725;SDS011;41776;48.260;8.928;2024-01-11T05:51:18;26.97;;;10.33;;
1725;SDS011;41776;48.260;8.928;2024-01-11T05:53:45;32.87;;;11.43;;
1725;SDS011;41776;48.260;8.928;2024-01-11T05:56:11;34.97;;;12.27;;
1725;SDS011;41776;48.260;8.928;2024-01-11T05:58:39;48.17;;;16.00;;
1725;SDS011;41776;48.260;8.928;2024-01-11T06:01:05;36.13;;;13.60;;
1725;SDS011;41776;48.260;8.928;2024-01-11T06:03:32;29.93;;;11.03;;
1725;SDS011;41776;48.260;8.928;2024-01-11T06:06:01;25.93;;;10.30;;
1725;SDS011;41776;48.260;8.928;2024-01-11T06:08:28;34.97;;;11.90;;
1725;SDS011;41776;48.260;8.928;2024-01-11T06:10:55;38.27;;;13.20;;
1725;SDS011;41776;48.260;8.928;2024-01-11T06:13:22;44.30;;;13.83;;
1725;SDS011;41776;48.260;8.928;2024-01-11T06:15:48;39.70;;;14.07;;
1725;SDS011;41776;48.260;8.928;2024-01-11T06:18:15;55.60;;;21.17;;
1725;SDS011;41776;48.260;8.928;2024-01-11T06:20:42;51.00;;;18.63;;
1725;SDS011;41776;48.260;8.928;2024-01-11T06:23:10;50.43;;;18.57;;
1725;SDS011;41776;48.260;8.928;2024-01-11T06:25:37;48.30;;;17.60;;
1725;SDS011;41776;48.260;8.928;2024-01-11T06:28:03;57.57;;;18.63;;
1725;SDS011;41776;48.260;8.928;2024-01-11T06:30:31;50.17;;;17.13;;
1725;SDS011;41776;48.260;8.928;2024-01-11T06:32:58;53.77;;;17.87;;
1725;SDS011;41776;48.260;8.928;2024-01-11T06:35:25;44.40;;;16.63;;
1725;SDS011;41776;48.260;8.928;2024-01-11T06:37:51;46.77;;;15.77;;
1725;SDS011;41776;48.260;8.928;2024-01-11T06:40:19;44.90;;;14.73;;
1725;SDS011;41776;48.260;8.928;2024-01-11T06:42:46;41.33;;;15.30;;
1725;SDS011;41776;48.260;8.928;2024-01-11T06:45:12;55.80;;;19.10;;
1725;SDS011;41776;48.260;8.928;2024-01-11T06:47:39;65.20;;;20.53;;
1725;SDS011;41776;48.260;8.928;2024-01-11T06:50:06;75.33;;;21.93;;
1725;SDS011;41776;48.260;8.928;2024-01-11T06:52:33;73.00;;;21.80;;
1725;SDS011;41776;48.260;8.928;2024-01-11T06:55:00;63.60;;;20.03;;
1725;SDS011;41776;48.260;8.928;2024-01-11T06:57:31;60.83;;;20.80;;
1725;SDS011;41776;48.260;8.928;2024-01-11T06:59:57;58.63;;;18.77;;
1725;SDS011;41776;48.260;8.928;2024-01-11T07:02:24;64.80;;;19.40;;
1725;SDS011;41776;48.260;8.928;2024-01-11T07:04:51;51.40;;;17.20;;
1725;SDS011;41776;48.260;8.928;2024-01-11T07:07:17;49.97;;;17.90;;
1725;SDS011;41776;48.260;8.928;2024-01-11T07:09:44;46.50;;;17.80;;
1725;SDS011;41776;48.260;8.928;2024-01-11T07:12:10;52.30;;;17.67;;
1725;SDS011;41776;48.260;8.928;2024-01-11T07:14:38;53.77;;;18.30;;
1725;SDS011;41776;48.260;8.928;2024-01-11T07:17:05;50.47;;;17.87;;
1725;SDS011;41776;48.260;8.928;2024-01-11T07:19:31;44.57;;;17.53;;
1725;SDS011;41776;48.260;8.928;2024-01-11T07:21:58;47.40;;;19.07;;
1725;SDS011;41776;48.260;8.928;2024-01-11T07:24:24;49.37;;;17.23;;
1725;SDS011;41776;48.260;8.928;2024-01-11T07:26:51;55.50;;;19.07;;
1725;SDS011;41776;48.260;8.928;2024-01-11T07:29:18;46.83;;;17.67;;
1725;SDS011;41776;48.260;8.928;2024-01-11T07:31:46;51.97;;;17.20;;
1725;SDS011;41776;48.260;8.928;2024-01-11T07:34:13;48.00;;;17.13;;
1725;SDS011;41776;48.260;8.928;2024-01-11T07:36:39;53.63;;;17.73;;
1725;SDS011;41776;48.260;8.928;2024-01-11T07:39:06;48.67;;;17.87;;
1725;SDS011;41776;48.260;8.928;2024-01-11T07:41:32;48.93;;;17.40;;
1725;SDS011;41776;48.260;8.928;2024-01-11T07:43:59;39.17;;;13.97;;
1725;SDS011;41776;48.260;8.928;2024-01-11T07:46:26;40.23;;;14.37;;
1725;SDS011;41776;48.260;8.928;2024-01-11T07:48:54;41.50;;;14.10;;
1725;SDS011;41776;48.260;8.928;2024-01-11T07:51:20;41.87;;;13.87;;
1725;SDS011;41776;48.260;8.928;2024-01-11T07:53:47;31.40;;;12.27;;
1725;SDS011;41776;48.260;8.928;2024-01-11T07:56:14;26.67;;;10.50;;
1725;SDS011;41776;48.260;8.928;2024-01-11T07:58:40;34.10;;;12.97;;
1725;SDS011;41776;48.260;8.928;2024-01-11T08:01:07;32.57;;;10.97;;
1725;SDS011;41776;48.260;8.928;2024-01-11T08:03:35;27.63;;;9.97;;
1725;SDS011;41776;48.260;8.928;2024-01-11T08:06:03;32.13;;;12.10;;
1725;SDS011;41776;48.260;8.928;2024-01-11T08:08:32;31.80;;;11.40;;
1725;SDS011;41776;48.260;8.928;2024-01-11T08:10:59;34.00;;;12.90;;
1725;SDS011;41776;48.260;8.928;2024-01-11T08:13:25;33.87;;;13.27;;
1725;SDS011;41776;48.260;8.928;2024-01-11T08:15:52;35.30;;;13.47;;
1725;SDS011;41776;48.260;8.928;2024-01-11T08:18:19;42.47;;;14.57;;
1725;SDS011;41776;48.260;8.928;2024-01-11T08:20:46;38.07;;;13.90;;
1725;SDS011;41776;48.260;8.928;2024-01-11T08:23:15;29.60;;;12.77;;
1725;SDS011;41776;48.260;8.928;2024-01-11T08:25:41;28.67;;;10.90;;
1725;SDS011;41776;48.260;8.928;2024-01-11T08:28:08;30.60;;;11.30;;
1725;SDS011;41776;48.260;8.928;2024-01-11T08:30:34;28.80;;;10.67;;
1725;SDS011;41776;48.260;8.928;2024-01-11T08:33:01;27.87;;;10.30;;
1725;SDS011;41776;48.260;8.928;2024-01-11T08:35:28;28.90;;;10.67;;
1725;SDS011;41776;48.260;8.928;2024-01-11T08:37:57;33.83;;;14.23;;
1725;SDS011;41776;48.260;8.928;2024-01-11T08:40:25;39.57;;;17.33;;
1725;SDS011;41776;48.260;8.928;2024-01-11T08:42:51;54.13;;;21.90;;
1725;SDS011;41776;48.260;8.928;2024-01-11T08:45:18;53.83;;;19.37;;
1725;SDS011;41776;48.260;8.928;2024-01-11T08:47:45;47.90;;;16.80;;
1725;SDS011;41776;48.260;8.928;2024-01-11T08:50:13;45.70;;;16.07;;
1725;SDS011;41776;48.260;8.928;2024-01-11T08:52:40;34.57;;;13.10;;
1725;SDS011;41776;48.260;8.928;2024-01-11T08:55:07;36.80;;;13.50;;
1725;SDS011;41776;48.260;8.928;2024-01-11T08:57:36;42.40;;;14.70;;
1725;SDS011;41776;48.260;8.928;2024-01-11T09:00:02;41.07;;;15.47;;
1725;SDS011;41776;48.260;8.928;2024-01-11T09:02:31;46.57;;;15.73;;
1725;SDS011;41776;48.260;8.928;2024-01-11T09:04:57;43.70;;;16.27;;
1725;SDS011;41776;48.260;8.928;2024-01-11T09:07:24;47.03;;;17.27;;
1725;SDS011;41776;48.260;8.928;2024-01-11T09:09:51;43.53;;;16.03;;
1725;SDS011;41776;48.260;8.928;2024-01-11T09:12:19;41.77;;;14.80;;
1725;SDS011;41776;48.260;8.928;2024-01-11T09:14:47;40.07;;;15.67;;
1725;SDS011;41776;48.260;8.928;2024-01-11T09:17:13;41.27;;;15.83;;
1725;SDS011;41776;48.260;8.928;2024-01-11T09:19:40;38.80;;;14.97;;
1725;SDS011;41776;48.260;8.928;2024-01-11T09:22:06;35.27;;;15.20;;
1725;SDS011;41776;48.260;8.928;2024-01-11T09:24:34;38.23;;;15.33;;
1725;SDS011;41776;48.260;8.928;2024-01-11T09:27:01;43.50;;;16.90;;
1725;SDS011;41776;48.260;8.928;2024-01-11T09:29:29;43.53;;;17.03;;
1725;SDS011;41776;48.260;8.928;2024-01-11T09:31:58;40.63;;;16.57;;
1725;SDS011;41776;48.260;8.928;2024-01-11T09:34:24;52.70;;;17.93;;
1725;SDS011;41776;48.260;8.928;2024-01-11T09:36:51;50.57;;;19.87;;
1725;SDS011;41776;48.260;8.928;2024-01-11T09:39:20;53.47;;;21.10;;
1725;SDS011;41776;48.260;8.928;2024-01-11T09:41:50;52.07;;;19.13;;
1725;SDS011;41776;48.260;8.928;2024-01-11T09:44:24;61.37;;;21.47;;
1725;SDS011;41776;48.260;8.928;2024-01-11T09:46:53;73.50;;;24.83;;
1725;SDS011;41776;48.260;8.928;2024-01-11T09:49:22;62.47;;;23.23;;
1725;SDS011;41776;48.260;8.928;2024-01-11T09:51:49;69.93;;;24.33;;
1725;SDS011;41776;48.260;8.928;2024-01-11T09:54:17;75.23;;;25.33;;
1725;SDS011;41776;48.260;8.928;2024-01-11T09:56:49;81.43;;;26.77;;
1725;SDS011;41776;48.260;8.928;2024-01-11T09:59:17;75.87;;;27.33;;
1725;SDS011;41776;48.260;8.928;2024-01-11T10:01:47;79.87;;;26.23;;
1725;SDS011;41776;48.260;8.928;2024-01-11T10:04:14;70.63;;;26.80;;
1725;SDS011;41776;48.260;8.928;2024-01-11T10:06:43;66.97;;;26.13;;
1725;SDS011;41776;48.260;8.928;2024-01-11T10:09:10;78.17;;;28.23;;
1725;SDS011;41776;48.260;8.928;2024-01-11T10:11:38;72.10;;;27.17;;
1725;SDS011;41776;48.260;8.928;2024-01-11T10:14:04;67.23;;;25.57;;
1725;SDS011;41776;48.260;8.928;2024-01-11T10:16:31;72.07;;;25.97;;
1725;SDS011;41776;48.260;8.928;2024-01-11T10:18:58;66.70;;;26.63;;
1725;SDS011;41776;48.260;8.928;2024-01-11T10:21:24;69.27;;;24.63;;
1725;SDS011;41776;48.260;8.928;2024-01-11T10:23:55;67.00;;;24.47;;
1725;SDS011;41776;48.260;8.928;2024-01-11T10:26:23;61.40;;;24.27;;
1725;SDS011;41776;48.260;8.928;2024-01-11T10:28:50;63.17;;;23.73;;
1725;SDS011;41776;48.260;8.928;2024-01-11T10:31:17;70.80;;;25.60;;
1725;SDS011;41776;48.260;8.928;2024-01-11T10:33:46;69.33;;;24.90;;
1725;SDS011;41776;48.260;8.928;2024-01-11T10:36:13;70.00;;;25.07;;
1725;SDS011;41776;48.260;8.928;2024-01-11T10:38:39;72.23;;;25.53;;
1725;SDS011;41776;48.260;8.928;2024-01-11T10:41:08;68.60;;;25.37;;
1725;SDS011;41776;48.260;8.928;2024-01-11T10:43:38;63.90;;;25.13;;
1725;SDS011;41776;48.260;8.928;2024-01-11T10:46:06;68.43;;;24.77;;
1725;SDS011;41776;48.260;8.928;2024-01-11T10:48:37;62.27;;;22.90;;
1725;SDS011;41776;48.260;8.928;2024-01-11T10:51:12;60.23;;;23.17;;
1725;SDS011;41776;48.260;8.928;2024-01-11T10:53:44;71.90;;;24.97;;
1725;SDS011;41776;48.260;8.928;2024-01-11T10:56:14;68.80;;;26.53;;
1725;SDS011;41776;48.260;8.928;2024-01-11T10:58:42;64.37;;;24.20;;
1725;SDS011;41776;48.260;8.928;2024-01-11T11:01:09;72.13;;;24.63;;
1725;SDS011;41776;48.260;8.928;2024-01-11T11:03:37;71.93;;;26.07;;
1725;SDS011;41776;48.260;8.928;2024-01-11T11:06:06;71.03;;;26.50;;
1725;SDS011;41776;48.260;8.928;2024-01-11T11:08:33;74.20;;;26.83;;
1725;SDS011;41776;48.260;8.928;2024-01-11T11:11:02;87.13;;;31.73;;
1725;SDS011;41776;48.260;8.928;2024-01-11T11:13:32;75.13;;;28.77;;
1725;SDS011;41776;48.260;8.928;2024-01-11T11:16:07;79.53;;;26.97;;
1725;SDS011;41776;48.260;8.928;2024-01-11T11:18:34;76.63;;;28.67;;
1725;SDS011;41776;48.260;8.928;2024-01-11T11:21:06;75.57;;;28.80;;
1725;SDS011;41776;48.260;8.928;2024-01-11T11:23:35;76.37;;;29.23;;
1725;SDS011;41776;48.260;8.928;2024-01-11T11:26:05;83.73;;;28.70;;
1725;SDS011;41776;48.260;8.928;2024-01-11T11:28:34;82.33;;;30.63;;
1725;SDS011;41776;48.260;8.928;2024-01-11T11:31:02;89.63;;;31.00;;
1725;SDS011;41776;48.260;8.928;2024-01-11T11:33:29;88.50;;;31.07;;
1725;SDS011;41776;48.260;8.928;2024-01-11T11:35:57;83.13;;;31.00;;
1725;SDS011;41776;48.260;8.928;2024-01-11T11:38:25;90.97;;;30.87;;
1725;SDS011;41776;48.260;8.928;2024-01-11T11:40:53;81.23;;;30.97;;
1725;SDS011;41776;48.260;8.928;2024-01-11T11:43:22;82.50;;;30.80;;
1725;SDS011;41776;48.260;8.928;2024-01-11T11:45:51;81.13;;;29.50;;
1725;SDS011;41776;48.260;8.928;2024-01-11T11:51:18;93.87;;;31.67;;
1725;SDS011;41776;48.260;8.928;2024-01-11T11:53:46;83.87;;;30.57;;
1725;SDS011;41776;48.260;8.928;2024-01-11T11:56:16;99.30;;;33.50;;
1725;SDS011;41776;48.260;8.928;2024-01-11T11:58:45;91.00;;;33.50;;
1725;SDS011;41776;48.260;8.928;2024-01-11T12:01:14;94.23;;;34.07;;
1725;SDS011;41776;48.260;8.928;2024-01-11T12:03:43;84.70;;;32.07;;
1725;SDS011;41776;48.260;8.928;2024-01-11T12:06:14;99.17;;;33.17;;
1725;SDS011;41776;48.260;8.928;2024-01-11T12:08:42;79.83;;;29.93;;
1725;SDS011;41776;48.260;8.928;2024-01-11T12:11:12;84.57;;;30.97;;
1725;SDS011;41776;48.260;8.928;2024-01-11T12:13:40;85.47;;;29.40;;
1725;SDS011;41776;48.260;8.928;2024-01-11T12:16:09;74.30;;;28.97;;
1725;SDS011;41776;48.260;8.928;2024-01-11T12:18:38;76.30;;;29.27;;
1725;SDS011;41776;48.260;8.928;2024-01-11T12:21:04;74.70;;;29.20;;
1725;SDS011;41776;48.260;8.928;2024-01-11T12:23:32;74.50;;;29.60;;
1725;SDS011;41776;48.260;8.928;2024-01-11T12:26:00;82.73;;;32.60;;
1725;SDS011;41776;48.260;8.928;2024-01-11T12:28:29;86.03;;;29.67;;
1725;SDS011;41776;48.260;8.928;2024-01-11T12:30:55;85.27;;;32.77;;
1725;SDS011;41776;48.260;8.928;2024-01-11T12:33:22;87.82;;;35.85;;
1725;SDS011;41776;48.260;8.928;2024-01-11T12:35:50;74.60;;;31.63;;
1725;SDS011;41776;48.260;8.928;2024-01-11T12:38:19;80.63;;;30.67;;
1725;SDS011;41776;48.260;8.928;2024-01-11T12:40:46;87.37;;;33.67;;
1725;SDS011;41776;48.260;8.928;2024-01-11T12:43:13;81.93;;;32.00;;
1725;SDS011;41776;48.260;8.928;2024-01-11T12:45:43;85.43;;;31.03;;
1725;SDS011;41776;48.260;8.928;2024-01-11T12:48:09;79.30;;;28.73;;
1725;SDS011;41776;48.260;8.928;2024-01-11T12:50:41;77.07;;;29.60;;
1725;SDS011;41776;48.260;8.928;2024-01-11T12:53:10;82.43;;;30.90;;
1725;SDS011;41776;48.260;8.928;2024-01-11T12:55:43;85.40;;;31.40;;
1725;SDS011;41776;48.260;8.928;2024-01-11T12:58:09;74.23;;;29.00;;
1725;SDS011;41776;48.260;8.928;2024-01-11T13:00:36;78.57;;;30.47;;
1725;SDS011;41776;48.260;8.928;2024-01-11T13:03:03;78.83;;;30.40;;
1725;SDS011;41776;48.260;8.928;2024-01-11T13:05:30;81.20;;;29.37;;
1725;SDS011;41776;48.260;8.928;2024-01-11T13:07:59;93.57;;;31.60;;
1725;SDS011;41776;48.260;8.928;2024-01-11T13:10:29;80.30;;;31.07;;
1725;SDS011;41776;48.260;8.928;2024-01-11T13:12:58;74.10;;;30.20;;
1725;SDS011;41776;48.260;8.928;2024-01-11T13:15:25;71.73;;;28.37;;
1725;SDS011;41776;48.260;8.928;2024-01-11T13:17:54;71.57;;;29.03;;
1725;SDS011;41776;48.260;8.928;2024-01-11T13:20:21;78.70;;;29.50;;
1725;SDS011;41776;48.260;8.928;2024-01-11T13:22:47;75.23;;;28.37;;
1725;SDS011;41776;48.260;8.928;2024-01-11T13:25:14;74.93;;;29.30;;
1725;SDS011;41776;48.260;8.928;2024-01-11T13:27:42;80.13;;;31.63;;
1725;SDS011;41776;48.260;8.928;2024-01-11T13:30:09;78.50;;;30.90;;
1725;SDS011;41776;48.260;8.928;2024-01-11T13:32:38;86.30;;;32.00;;
1725;SDS011;41776;48.260;8.928;2024-01-11T13:35:05;83.67;;;30.03;;
1725;SDS011;41776;48.260;8.928;2024-01-11T13:37:34;83.67;;;30.87;;
1725;SDS011;41776;48.260;8.928;2024-01-11T13:40:00;73.37;;;29.13;;
1725;SDS011;41776;48.260;8.928;2024-01-11T13:42:30;82.67;;;30.93;;
1725;SDS011;41776;48.260;8.928;2024-01-11T13:44:58;83.83;;;31.43;;
1725;SDS011;41776;48.260;8.928;2024-01-11T13:47:25;82.10;;;30.00;;
1725;SDS011;41776;48.260;8.928;2024-01-11T13:49:51;71.50;;;29.80;;
1725;SDS011;41776;48.260;8.928;2024-01-11T13:52:18;80.67;;;32.17;;
1725;SDS011;41776;48.260;8.928;2024-01-11T13:54:45;87.37;;;31.77;;
1725;SDS011;41776;48.260;8.928;2024-01-11T13:57:11;83.57;;;31.43;;
1725;SDS011;41776;48.260;8.928;2024-01-11T13:59:40;81.33;;;30.57;;
1725;SDS011;41776;48.260;8.928;2024-01-11T14:02:08;79.57;;;28.70;;
1725;SDS011;41776;48.260;8.928;2024-01-11T14:04:34;78.47;;;30.67;;
1725;SDS011;41776;48.260;8.928;2024-01-11T14:07:01;79.07;;;29.00;;
1725;SDS011;41776;48.260;8.928;2024-01-11T14:09:28;82.67;;;30.87;;
1725;SDS011;41776;48.260;8.928;2024-01-11T14:11:55;79.80;;;30.00;;
1725;SDS011;41776;48.260;8.928;2024-01-11T14:14:21;80.10;;;30.03;;
1725;SDS011;41776;48.260;8.928;2024-01-11T14:16:48;78.17;;;29.90;;
1725;SDS011;41776;48.260;8.928;2024-01-11T14:19:17;88.70;;;31.93;;
1725;SDS011;41776;48.260;8.928;2024-01-11T14:21:44;83.17;;;29.53;;
1725;SDS011;41776;48.260;8.928;2024-01-11T14:24:10;89.13;;;30.87;;
1725;SDS011;41776;48.260;8.928;2024-01-11T14:26:37;79.83;;;29.73;;
1725;SDS011;41776;48.260;8.928;2024-01-11T14:29:04;89.00;;;32.43;;
1725;SDS011;41776;48.260;8.928;2024-01-11T14:31:31;79.77;;;30.00;;
1725;SDS011;41776;48.260;8.928;2024-01-11T14:33:57;87.90;;;30.27;;
1725;SDS011;41776;48.260;8.928;2024-01-11T14:36:25;96.17;;;35.83;;
1725;SDS011;41776;48.260;8.928;2024-01-11T14:38:51;88.63;;;34.10;;
1725;SDS011;41776;48.260;8.928;2024-01-11T14:41:18;92.83;;;35.90;;
1725;SDS011;41776;48.260;8.928;2024-01-11T14:43:44;92.73;;;33.47;;